createdAt,value
2022-12-23T09:25:42.935Z,3.20
2022-12-23T09:27:45.695Z,3.20
2022-12-23T09:29:48.003Z,2.94
2022-12-23T09:31:50.325Z,3.09
2022-12-23T09:33:53.942Z,3.21
2022-12-23T09:36:00.087Z,3.59
2022-12-23T09:38:02.444Z,3.68
2022-12-23T09:40:05.426Z,3.63
2022-12-23T09:42:21.962Z,3.79
2022-12-23T09:44:36.271Z,3.93
2022-12-23T09:46:51.612Z,4.00
2022-12-23T09:49:02.849Z,3.93
2022-12-23T09:51:05.945Z,3.62
2022-12-23T09:53:25.246Z,3.48
2022-12-23T09:55:57.514Z,3.47
2022-12-23T09:58:05.004Z,3.48
2022-12-23T10:00:13.177Z,3.43
2022-12-23T10:02:44.207Z,3.27
2022-12-23T10:05:14.064Z,3.34
2022-12-23T10:07:24.165Z,3.14
2022-12-23T10:09:28.644Z,3.01
2022-12-23T10:11:57.631Z,2.93
2022-12-23T10:14:09.462Z,2.87
2022-12-23T10:16:18.251Z,2.89
2022-12-23T10:18:26.810Z,2.81
2022-12-23T10:20:48.284Z,3.02
2022-12-23T10:22:51.477Z,2.90
2022-12-23T10:24:57.734Z,3.05
2022-12-23T10:27:04.359Z,3.28
2022-12-23T10:29:34.657Z,3.26
2022-12-23T10:31:59.242Z,3.12
2022-12-23T10:34:19.803Z,3.15
2022-12-23T10:36:45.650Z,3.12
2022-12-23T10:38:52.520Z,3.05
2022-12-23T10:41:09.558Z,3.22
2022-12-23T10:43:38.370Z,3.25
2022-12-23T10:46:02.225Z,3.32
2022-12-23T10:48:40.334Z,3.66
2022-12-23T10:50:58.490Z,3.78
2022-12-23T10:53:04.894Z,3.51
2022-12-23T10:55:21.309Z,3.47
2022-12-23T10:57:24.828Z,3.56
2022-12-23T10:59:29.883Z,3.62
2022-12-23T11:01:33.200Z,3.59
2022-12-23T11:03:44.088Z,3.67
2022-12-23T11:05:48.925Z,3.85
2022-12-23T11:07:51.781Z,4.08
2022-12-23T11:10:07.830Z,3.73
2022-12-23T11:12:11.998Z,3.72
2022-12-23T11:14:31.407Z,3.79
2022-12-23T11:16:33.838Z,3.72
2022-12-23T11:18:41.794Z,3.79
2022-12-23T11:21:00.925Z,3.92
2022-12-23T11:23:05.246Z,3.97
2022-12-23T11:25:41.791Z,3.75
2022-12-23T11:27:45.965Z,3.88
2022-12-23T11:29:54.625Z,3.67
2022-12-23T11:31:57.537Z,3.69
2022-12-23T11:34:03.432Z,3.81
2022-12-23T11:36:23.942Z,3.66
2022-12-23T11:38:26.339Z,3.96
2022-12-23T11:40:32.770Z,4.03
2022-12-23T11:42:35.275Z,4.05
2022-12-23T11:44:44.950Z,4.31
2022-12-23T11:46:48.114Z,4.31
2022-12-23T11:49:04.845Z,4.35
2022-12-23T11:51:07.341Z,4.26
2022-12-23T11:53:12.206Z,4.26
2022-12-23T11:55:25.134Z,4.33
2022-12-23T11:57:44.874Z,4.15
2022-12-23T11:59:50.049Z,4.08
2022-12-23T12:01:53.227Z,3.80
2022-12-23T12:04:01.369Z,3.95
2022-12-23T12:06:07.323Z,4.07
2022-12-23T12:08:14.093Z,4.79
2022-12-23T12:10:27.203Z,4.44
2022-12-23T12:12:30.235Z,4.42
2022-12-23T12:14:54.492Z,4.46
2022-12-23T12:17:08.206Z,4.43
2022-12-23T12:19:31.871Z,4.47
2022-12-23T12:21:38.943Z,4.34
2022-12-23T12:23:41.592Z,4.50
2022-12-23T12:26:06.975Z,4.37
2022-12-23T12:28:22.530Z,4.61
2022-12-23T12:30:34.151Z,4.30
2022-12-23T12:32:55.222Z,4.33
2022-12-23T12:35:05.560Z,4.56
2022-12-23T12:37:14.087Z,4.53
2022-12-23T12:39:34.082Z,4.45
2022-12-23T12:41:51.276Z,4.37
2022-12-23T12:44:06.165Z,4.39
2022-12-23T12:46:32.668Z,4.28
2022-12-23T12:48:40.353Z,4.35
2022-12-23T12:50:56.421Z,4.54
2022-12-23T12:53:12.546Z,4.74
2022-12-23T12:55:29.664Z,4.71
2022-12-23T12:57:35.741Z,4.76
2022-12-23T12:59:40.205Z,4.88
2022-12-23T13:01:49.885Z,5.06
2022-12-23T13:03:55.508Z,4.83
2022-12-23T13:06:25.316Z,5.05
2022-12-23T13:08:33.524Z,4.91
2022-12-23T13:10:48.009Z,4.79
2022-12-23T13:13:08.738Z,4.79
2022-12-23T13:15:23.697Z,4.67
2022-12-23T13:17:37.770Z,4.66
2022-12-23T13:20:02.026Z,4.82
2022-12-23T13:22:10.215Z,4.89
2022-12-23T13:24:18.994Z,4.82
2022-12-23T13:26:29.907Z,4.88
2022-12-23T13:28:43.992Z,4.86
2022-12-23T13:30:55.806Z,4.97
2022-12-23T13:33:16.544Z,4.87
2022-12-23T13:35:37.621Z,4.86
2022-12-23T13:37:54.099Z,4.93
2022-12-23T13:40:12.154Z,4.85
2022-12-23T13:42:28.648Z,4.89
2022-12-23T13:44:34.187Z,4.81
2022-12-23T13:47:15.985Z,5.01
2022-12-23T13:49:27.646Z,4.79
2022-12-23T13:51:35.788Z,4.70
2022-12-23T13:53:43.921Z,4.62
2022-12-23T13:56:04.898Z,4.71
2022-12-23T13:58:11.843Z,4.63
2022-12-23T14:00:17.380Z,4.68
2022-12-23T14:02:49.522Z,4.83
2022-12-23T14:04:59.748Z,4.91
2022-12-23T14:07:24.514Z,4.95
2022-12-23T14:09:35.497Z,4.88
2022-12-23T14:11:38.239Z,4.80
2022-12-23T14:13:49.691Z,5.02
2022-12-23T14:16:18.373Z,4.95
2022-12-23T14:18:34.742Z,4.92
2022-12-23T14:21:01.929Z,4.96
2022-12-23T14:23:12.056Z,4.86
2022-12-23T14:25:55.801Z,4.65
2022-12-23T14:28:10.101Z,4.62
2022-12-23T14:30:22.310Z,4.83
2022-12-23T14:32:28.053Z,4.68
2022-12-23T14:34:33.395Z,4.79
2022-12-23T14:36:36.059Z,4.65
2022-12-23T14:38:39.394Z,4.44
2022-12-23T14:40:41.696Z,4.49
2022-12-23T14:42:45.025Z,4.56
2022-12-23T14:44:50.342Z,4.52
2022-12-23T14:46:55.567Z,4.61
2022-12-23T14:49:29.959Z,4.49
2022-12-23T14:51:33.924Z,4.46
2022-12-23T14:53:56.679Z,4.43
2022-12-23T14:56:08.286Z,4.44
2022-12-23T14:58:34.317Z,4.28
2022-12-23T15:00:47.293Z,4.43
2022-12-23T15:02:55.099Z,4.45
2022-12-23T15:04:59.101Z,4.59
2022-12-23T15:07:15.259Z,4.66
2022-12-23T15:09:27.558Z,4.74
2022-12-23T15:11:33.128Z,4.84
2022-12-23T15:13:37.103Z,4.77
2022-12-23T15:15:55.861Z,5.04
2022-12-23T15:18:21.736Z,4.98
2022-12-23T15:20:25.593Z,5.03
2022-12-23T15:22:32.618Z,5.22
2022-12-23T15:24:35.250Z,5.03
2022-12-23T15:26:39.209Z,4.82
2022-12-23T15:28:49.928Z,4.97
2022-12-23T15:30:54.979Z,4.94
2022-12-23T15:33:16.088Z,4.85
2022-12-23T15:35:32.374Z,4.94
2022-12-23T15:37:35.145Z,5.09
2022-12-23T15:39:40.927Z,4.92
2022-12-23T15:41:45.779Z,4.82
2022-12-23T15:43:48.585Z,4.75
2022-12-23T15:45:51.522Z,4.61
2022-12-23T15:47:54.180Z,4.69
2022-12-23T15:50:01.174Z,4.63
2022-12-23T15:52:08.832Z,4.48
2022-12-23T15:54:21.683Z,4.37
2022-12-23T15:56:27.104Z,4.32
2022-12-23T15:58:32.968Z,4.42
2022-12-23T16:00:41.495Z,4.47
2022-12-23T16:03:02.429Z,4.43
2022-12-23T16:05:06.316Z,4.39
2022-12-23T16:07:25.678Z,4.59
2022-12-23T16:09:34.925Z,4.65
2022-12-23T16:12:00.645Z,4.77
2022-12-23T16:14:34.923Z,4.92
2022-12-23T16:16:42.299Z,4.93
2022-12-23T16:18:47.619Z,5.20
2022-12-23T16:20:57.793Z,5.05
2022-12-23T16:23:03.100Z,4.91
2022-12-23T16:25:23.055Z,4.97
2022-12-23T16:27:54.682Z,5.06
2022-12-23T16:30:02.454Z,5.03
2022-12-23T16:32:05.150Z,5.12
2022-12-23T16:34:07.952Z,4.94
2022-12-23T16:36:26.044Z,5.07
2022-12-23T16:38:30.244Z,5.06
2022-12-23T16:40:32.763Z,5.08
2022-12-23T16:42:35.449Z,5.06
2022-12-23T16:44:37.805Z,5.08
2022-12-23T16:46:43.624Z,5.11
2022-12-23T16:48:55.416Z,5.16
2022-12-23T16:50:59.381Z,5.22
2022-12-23T16:53:01.789Z,5.24
2022-12-23T16:55:16.453Z,5.29
2022-12-23T16:57:18.772Z,5.29
2022-12-23T16:59:21.143Z,5.39
2022-12-23T17:01:27.705Z,5.30
2022-12-23T17:03:30.223Z,5.29
2022-12-23T17:05:32.658Z,5.17
2022-12-23T17:07:38.710Z,5.22
2022-12-23T17:09:43.940Z,4.67
2022-12-23T17:11:52.880Z,4.81
2022-12-23T17:14:01.586Z,4.87
2022-12-23T17:16:20.532Z,4.98
2022-12-23T17:18:23.009Z,5.17
2022-12-23T17:20:25.787Z,5.31
2022-12-23T17:22:28.745Z,5.27
2022-12-23T17:24:31.509Z,5.38
2022-12-23T17:26:34.195Z,5.15
2022-12-23T17:28:36.507Z,5.14
2022-12-23T17:30:41.022Z,5.02
2022-12-23T17:32:55.389Z,5.00
2022-12-23T17:34:57.675Z,5.01
2022-12-23T17:37:01.971Z,5.03
2022-12-23T17:39:05.123Z,4.81
2022-12-23T17:41:25.382Z,4.87
2022-12-23T17:43:27.766Z,4.85
2022-12-23T17:45:31.115Z,4.95
2022-12-23T17:47:33.718Z,5.10
2022-12-23T17:49:36.008Z,5.23
2022-12-23T17:51:40.019Z,5.24
2022-12-23T17:53:42.850Z,5.31
2022-12-23T17:55:45.324Z,5.40
2022-12-23T17:57:48.293Z,5.21
2022-12-23T17:59:52.736Z,5.18
2022-12-23T18:01:55.472Z,5.30
2022-12-23T18:03:59.823Z,5.33
2022-12-23T18:06:02.626Z,5.42
2022-12-23T18:08:05.389Z,5.31
2022-12-23T18:10:12.648Z,5.32
2022-12-23T18:12:32.846Z,5.42
2022-12-23T18:14:35.207Z,5.33
2022-12-23T18:16:37.908Z,5.37
2022-12-23T18:18:46.286Z,5.41
2022-12-23T18:20:52.579Z,5.27
2022-12-23T18:22:55.484Z,5.56
2022-12-23T18:24:59.511Z,5.32
2022-12-23T18:27:02.127Z,5.15
2022-12-23T18:29:04.719Z,5.20
2022-12-23T18:31:17.337Z,5.14
2022-12-23T18:33:19.671Z,5.14
2022-12-23T18:35:24.599Z,5.05
2022-12-23T18:37:27.055Z,5.16
2022-12-23T18:39:29.411Z,5.28
2022-12-23T18:41:32.112Z,5.30
2022-12-23T18:43:34.432Z,5.14
2022-12-23T18:45:41.818Z,5.27
2022-12-23T18:47:44.602Z,5.27
2022-12-23T18:49:46.917Z,5.29
2022-12-23T18:51:49.384Z,5.27
2022-12-23T18:53:52.085Z,5.10
2022-12-23T18:55:55.423Z,5.04
2022-12-23T18:57:59.922Z,5.08
2022-12-23T19:00:07.190Z,5.18
2022-12-23T19:02:14.241Z,5.14
2022-12-23T19:04:16.755Z,4.92
2022-12-23T19:06:19.648Z,4.90
2022-12-23T19:08:27.087Z,4.89
2022-12-23T19:10:35.388Z,4.95
2022-12-23T19:12:38.056Z,4.65
2022-12-23T19:14:40.533Z,4.65
2022-12-23T19:16:49.289Z,4.77
2022-12-23T19:18:53.873Z,4.86
2022-12-23T19:20:56.131Z,4.93
2022-12-23T19:22:58.492Z,4.94
2022-12-23T19:25:06.393Z,4.89
2022-12-23T19:27:09.295Z,4.71
2022-12-23T19:29:11.768Z,4.66
2022-12-23T19:31:16.268Z,4.70
2022-12-23T19:33:18.749Z,4.69
2022-12-23T19:35:21.166Z,4.90
2022-12-23T19:37:23.938Z,4.58
2022-12-23T19:39:27.094Z,4.66
2022-12-23T19:41:29.588Z,4.76
2022-12-23T19:43:32.180Z,4.82
2022-12-23T19:45:34.583Z,4.84
2022-12-23T19:47:37.540Z,4.78
2022-12-23T19:49:40.289Z,4.76
2022-12-23T19:51:42.669Z,4.80
2022-12-23T19:53:46.328Z,4.75
2022-12-23T19:56:15.906Z,4.85
2022-12-23T19:58:18.278Z,4.92
2022-12-23T20:00:20.953Z,4.94
2022-12-23T20:02:23.984Z,5.04
2022-12-23T20:04:26.673Z,4.85
2022-12-23T20:06:34.480Z,4.90
2022-12-23T20:08:37.165Z,4.88
2022-12-23T20:10:39.497Z,5.00
2022-12-23T20:12:41.918Z,5.12
2022-12-23T20:14:44.768Z,5.00
2022-12-23T20:16:48.589Z,5.11
2022-12-23T20:18:51.492Z,5.07
2022-12-23T20:20:54.419Z,5.02
2022-12-23T20:22:57.060Z,5.17
2022-12-23T20:24:59.921Z,5.10
2022-12-23T20:27:07.814Z,4.95
2022-12-23T20:29:13.233Z,4.73
2022-12-23T20:31:30.936Z,4.57
2022-12-23T20:33:35.563Z,4.47
2022-12-23T20:35:38.116Z,4.38
2022-12-23T20:37:40.484Z,4.35
2022-12-23T20:39:43.324Z,4.41
2022-12-23T20:41:45.848Z,4.49
2022-12-23T20:44:02.914Z,4.41
2022-12-23T20:46:14.433Z,4.46
2022-12-23T20:48:18.315Z,4.44
2022-12-23T20:50:21.378Z,4.55
2022-12-23T20:52:25.602Z,4.71
2022-12-23T20:54:32.532Z,4.81
2022-12-23T20:56:36.382Z,4.90
2022-12-23T20:58:54.753Z,4.94
2022-12-23T21:01:08.644Z,4.88
2022-12-23T21:03:11.196Z,4.81
2022-12-23T21:05:13.899Z,4.83
2022-12-23T21:07:16.304Z,4.72
2022-12-23T21:09:18.687Z,4.63
2022-12-23T21:11:23.397Z,4.44
2022-12-23T21:13:25.982Z,4.33
2022-12-23T21:15:28.396Z,4.54
2022-12-23T21:17:31.258Z,4.66
2022-12-23T21:19:34.926Z,4.35
2022-12-23T21:21:37.276Z,4.46
2022-12-23T21:23:41.655Z,4.43
2022-12-23T21:25:43.987Z,4.26
2022-12-23T21:27:46.340Z,4.33
2022-12-23T21:29:48.964Z,4.35
2022-12-23T21:31:51.351Z,4.60
2022-12-23T21:33:54.197Z,4.65
2022-12-23T21:35:56.959Z,4.63
2022-12-23T21:37:59.296Z,4.70
2022-12-23T21:40:01.821Z,4.54
2022-12-23T21:42:04.587Z,4.66
2022-12-23T21:44:07.828Z,4.50
2022-12-23T21:46:13.289Z,4.51
2022-12-23T21:48:15.921Z,4.39
2022-12-23T21:50:18.191Z,4.40
2022-12-23T21:52:20.526Z,4.56
2022-12-23T21:54:23.131Z,4.69
2022-12-23T21:56:30.957Z,4.62
2022-12-23T21:58:33.773Z,4.76
2022-12-23T22:00:36.403Z,4.80
2022-12-23T22:02:39.406Z,4.74
2022-12-23T22:04:41.927Z,4.62
2022-12-23T22:06:45.104Z,4.67
2022-12-23T22:08:48.572Z,4.65
2022-12-23T22:10:50.914Z,4.79
2022-12-23T22:12:53.232Z,5.06
2022-12-23T22:14:55.815Z,4.89
2022-12-23T22:16:58.161Z,4.72
2022-12-23T22:19:01.604Z,4.67
2022-12-23T22:21:09.128Z,4.61
2022-12-23T22:23:11.386Z,4.70
2022-12-23T22:25:13.697Z,4.59
2022-12-23T22:27:16.327Z,4.73
2022-12-23T22:29:18.698Z,4.64
2022-12-23T22:31:29.749Z,4.76
2022-12-23T22:33:33.399Z,4.79
2022-12-23T22:35:35.659Z,4.90
2022-12-23T22:37:37.999Z,4.95
2022-12-23T22:39:40.579Z,4.82
2022-12-23T22:41:42.987Z,4.81
2022-12-23T22:43:45.302Z,4.73
2022-12-23T22:45:56.136Z,4.95
2022-12-23T22:47:58.643Z,4.95
2022-12-23T22:50:01.214Z,4.92
2022-12-23T22:52:04.035Z,5.14
2022-12-23T22:54:06.632Z,5.14
2022-12-23T22:56:12.204Z,4.85
2022-12-23T22:58:14.795Z,4.77
2022-12-23T23:00:17.317Z,4.77
2022-12-23T23:02:19.649Z,4.89
2022-12-23T23:04:22.738Z,4.97
2022-12-23T23:06:27.310Z,4.99
